TKY87T VNKT-VCBI
Flight info
| Callsign | TKY87T |
|---|---|
| Flight time | N/A |
| Altitude | 33000 |
| Route | LALBA R325 DUMKA/N0469F340 V41 GOSBI B209 DGP J26 VVZ A465 SAGOR |
| Aircraft | B738/M-SDE2E3FGHIRWXY/LB1 |
Departure
| Time | 2026-05-06 11:55 |
|---|---|
| Airport | Tribhuvan International Airport (VNKT) |
Arrival
| Time | N/A |
|---|---|
| Airport | Bandaranaike International Colombo Airport (VCBI) |
| Time | Latitude | Longitude | Altitude | Speed | Heading |
|---|---|---|---|---|---|
| 2026-05-06 11:38 | 27.69876 | 85.35790 | 4397 ft | 0 kts | 291° |
| 2026-05-06 11:47 | 27.69871 | 85.35804 | 4397 ft | 4 kts | 291° |
| 2026-05-06 11:47 | 27.69861 | 85.35832 | 4396 ft | 4 kts | 294° |
| 2026-05-06 11:48 | 27.69847 | 85.35857 | 4396 ft | 4 kts | 320° |
| 2026-05-06 11:48 | 27.69825 | 85.35868 | 4396 ft | 4 kts | 8° |
| 2026-05-06 11:48 | 27.69817 | 85.35867 | 4396 ft | 1 kts | 22° |
| 2026-05-06 11:50 | 27.69818 | 85.35867 | 4396 ft | 2 kts | 22° |
| 2026-05-06 11:50 | 27.69843 | 85.35879 | 4396 ft | 5 kts | 22° |
| 2026-05-06 11:50 | 27.69879 | 85.35896 | 4396 ft | 7 kts | 22° |
| 2026-05-06 11:50 | 27.69929 | 85.35919 | 4396 ft | 8 kts | 21° |
| 2026-05-06 11:51 | 27.69989 | 85.35945 | 4396 ft | 12 kts | 21° |
| 2026-05-06 11:51 | 27.70070 | 85.35982 | 4396 ft | 13 kts | 22° |
| 2026-05-06 11:51 | 27.70150 | 85.36019 | 4396 ft | 12 kts | 22° |
| 2026-05-06 11:51 | 27.70228 | 85.36054 | 4397 ft | 12 kts | 21° |
| 2026-05-06 11:52 | 27.70304 | 85.36089 | 4397 ft | 12 kts | 22° |
| 2026-05-06 11:52 | 27.70385 | 85.36125 | 4397 ft | 14 kts | 21° |
| 2026-05-06 11:52 | 27.70472 | 85.36165 | 4397 ft | 13 kts | 22° |
| 2026-05-06 11:52 | 27.70554 | 85.36207 | 4397 ft | 13 kts | 37° |
| 2026-05-06 11:53 | 27.70593 | 85.36295 | 4398 ft | 13 kts | 70° |
| 2026-05-06 11:53 | 27.70661 | 85.36370 | 4400 ft | 16 kts | 23° |
| 2026-05-06 11:53 | 27.70762 | 85.36416 | 4400 ft | 15 kts | 23° |
| 2026-05-06 11:53 | 27.70850 | 85.36476 | 4397 ft | 15 kts | 64° |
| 2026-05-06 11:54 | 27.70913 | 85.36516 | 4396 ft | 8 kts | 296° |
| 2026-05-06 11:54 | 27.70898 | 85.36489 | 4396 ft | 7 kts | 229° |
| 2026-05-06 11:54 | 27.70817 | 85.36441 | 4398 ft | 33 kts | 201° |
| 2026-05-06 11:54 | 27.70392 | 85.36249 | 4401 ft | 98 kts | 202° |
| 2026-05-06 11:55 | 27.69616 | 85.35894 | 4395 ft | 137 kts | 202° |
| 2026-05-06 11:55 | 27.68566 | 85.35419 | 4404 ft | 187 kts | 204° |
| 2026-05-06 11:55 | 27.67328 | 85.34832 | 5054 ft | 194 kts | 206° |
| 2026-05-06 11:55 | 27.66098 | 85.34209 | 5954 ft | 192 kts | 215° |
| 2026-05-06 11:56 | 27.65246 | 85.33095 | 6667 ft | 192 kts | 247° |
| 2026-05-06 11:56 | 27.64917 | 85.31630 | 7241 ft | 195 kts | 263° |
| 2026-05-06 11:56 | 27.64984 | 85.30096 | 7670 ft | 204 kts | 286° |
| 2026-05-06 11:56 | 27.65643 | 85.28610 | 7820 ft | 222 kts | 309° |
| 2026-05-06 11:57 | 27.66834 | 85.27402 | 7956 ft | 241 kts | 327° |
| 2026-05-06 11:57 | 27.68432 | 85.26663 | 8140 ft | 258 kts | 350° |
| 2026-05-06 11:57 | 27.70249 | 85.26673 | 8582 ft | 267 kts | 13° |
| 2026-05-06 11:57 | 27.71960 | 85.27488 | 9297 ft | 268 kts | 36° |
| 2026-05-06 11:58 | 27.73251 | 85.28986 | 10006 ft | 269 kts | 59° |
| 2026-05-06 11:58 | 27.74034 | 85.30915 | 10614 ft | 272 kts | 66° |
| 2026-05-06 11:58 | 27.74805 | 85.32883 | 11240 ft | 276 kts | 65° |
| 2026-05-06 11:58 | 27.75551 | 85.34896 | 11833 ft | 280 kts | 74° |
| 2026-05-06 11:59 | 27.75819 | 85.37085 | 12436 ft | 284 kts | 91° |
| 2026-05-06 11:59 | 27.75531 | 85.39287 | 13078 ft | 286 kts | 108° |
| 2026-05-06 11:59 | 27.74645 | 85.41302 | 13669 ft | 289 kts | 128° |
| 2026-05-06 11:59 | 27.73237 | 85.42882 | 14215 ft | 291 kts | 146° |
| 2026-05-06 12:00 | 27.71431 | 85.43967 | 14849 ft | 290 kts | 159° |
| 2026-05-06 12:00 | 27.69578 | 85.44826 | 15356 ft | 297 kts | 158° |
| 2026-05-06 12:00 | 27.67721 | 85.46013 | 15486 ft | 319 kts | 144° |
| 2026-05-06 12:00 | 27.66030 | 85.47748 | 15623 ft | 339 kts | 134° |
| 2026-05-06 12:01 | 27.64560 | 85.49926 | 15778 ft | 359 kts | 123° |
| 2026-05-06 12:01 | 27.63409 | 85.52509 | 15888 ft | 378 kts | 112° |
| 2026-05-06 12:01 | 27.62635 | 85.55388 | 16217 ft | 389 kts | 107° |
| 2026-05-06 12:01 | 27.61902 | 85.58333 | 16725 ft | 391 kts | 107° |
| 2026-05-06 12:02 | 27.61133 | 85.61289 | 17278 ft | 394 kts | 108° |
| 2026-05-06 12:02 | 27.60345 | 85.64252 | 17834 ft | 396 kts | 109° |
| 2026-05-06 12:02 | 27.59543 | 85.67243 | 18331 ft | 400 kts | 109° |
| 2026-05-06 12:02 | 27.58647 | 85.70214 | 18783 ft | 402 kts | 115° |
| 2026-05-06 12:03 | 27.57370 | 85.73012 | 19218 ft | 402 kts | 125° |
| 2026-05-06 12:03 | 27.55707 | 85.75534 | 19683 ft | 401 kts | 134° |
| 2026-05-06 12:03 | 27.53788 | 85.77822 | 20141 ft | 402 kts | 141° |
| 2026-05-06 12:03 | 27.51589 | 85.79740 | 20554 ft | 400 kts | 150° |
| 2026-05-06 12:04 | 27.49169 | 85.81296 | 21027 ft | 400 kts | 157° |
| 2026-05-06 12:04 | 27.46608 | 85.82508 | 21490 ft | 399 kts | 166° |
| 2026-05-06 12:04 | 27.43925 | 85.83272 | 21950 ft | 398 kts | 173° |
| 2026-05-06 12:04 | 27.41181 | 85.83637 | 22339 ft | 397 kts | 180° |
| 2026-05-06 12:05 | 27.38429 | 85.83601 | 22689 ft | 396 kts | 188° |
| 2026-05-06 12:05 | 27.35668 | 85.83361 | 23035 ft | 400 kts | 187° |
| 2026-05-06 12:05 | 27.32883 | 85.83156 | 23486 ft | 402 kts | 187° |
| 2026-05-06 12:05 | 27.30093 | 85.82970 | 23891 ft | 403 kts | 187° |
| 2026-05-06 12:06 | 27.27288 | 85.82787 | 24142 ft | 405 kts | 187° |
| 2026-05-06 12:06 | 27.24460 | 85.82600 | 24434 ft | 407 kts | 187° |
| 2026-05-06 12:06 | 27.21629 | 85.82410 | 24815 ft | 408 kts | 187° |
| 2026-05-06 12:06 | 27.18793 | 85.82218 | 25150 ft | 410 kts | 187° |
| 2026-05-06 12:07 | 27.15939 | 85.82026 | 25441 ft | 412 kts | 187° |
| 2026-05-06 12:07 | 27.13070 | 85.81832 | 25751 ft | 414 kts | 187° |
| 2026-05-06 12:07 | 27.10190 | 85.81639 | 26038 ft | 416 kts | 187° |
| 2026-05-06 12:07 | 27.07289 | 85.81444 | 26313 ft | 418 kts | 187° |
| 2026-05-06 12:08 | 27.04382 | 85.81249 | 26585 ft | 420 kts | 187° |
| 2026-05-06 12:08 | 27.01459 | 85.81053 | 26889 ft | 422 kts | 187° |
| 2026-05-06 12:08 | 26.98525 | 85.80856 | 27174 ft | 423 kts | 187° |
| 2026-05-06 12:08 | 26.95567 | 85.80763 | 27434 ft | 430 kts | 179° |
| 2026-05-06 12:09 | 26.92612 | 85.81498 | 27649 ft | 443 kts | 163° |
| 2026-05-06 12:09 | 26.89772 | 85.82873 | 27963 ft | 446 kts | 161° |
| 2026-05-06 12:09 | 26.86948 | 85.84325 | 28209 ft | 448 kts | 160° |
| 2026-05-06 12:09 | 26.84104 | 85.85789 | 28432 ft | 451 kts | 161° |
| 2026-05-06 12:10 | 26.81242 | 85.87237 | 28665 ft | 452 kts | 161° |
| 2026-05-06 12:10 | 26.78358 | 85.88673 | 28768 ft | 456 kts | 162° |
| 2026-05-06 12:10 | 26.75439 | 85.90112 | 28895 ft | 460 kts | 162° |
| 2026-05-06 12:10 | 26.72505 | 85.91556 | 29139 ft | 461 kts | 162° |
| 2026-05-06 12:11 | 26.69591 | 85.93071 | 29402 ft | 464 kts | 159° |
| 2026-05-06 12:11 | 26.66726 | 85.94762 | 29621 ft | 467 kts | 157° |
| 2026-05-06 12:11 | 26.63908 | 85.96480 | 29864 ft | 467 kts | 158° |
| 2026-05-06 12:11 | 26.61029 | 85.98153 | 30132 ft | 465 kts | 159° |
| 2026-05-06 12:12 | 26.58142 | 85.99765 | 30437 ft | 463 kts | 160° |
| 2026-05-06 12:12 | 26.55254 | 86.01352 | 30709 ft | 462 kts | 160° |
| 2026-05-06 12:12 | 26.52375 | 86.02929 | 30950 ft | 462 kts | 160° |
| 2026-05-06 12:12 | 26.49492 | 86.04512 | 31165 ft | 462 kts | 160° |
| 2026-05-06 12:13 | 26.46615 | 86.06098 | 31426 ft | 461 kts | 160° |
| 2026-05-06 12:13 | 26.43744 | 86.07687 | 31693 ft | 460 kts | 160° |
| 2026-05-06 12:13 | 26.40882 | 86.09274 | 31943 ft | 459 kts | 160° |
| 2026-05-06 12:13 | 26.38023 | 86.10860 | 32170 ft | 459 kts | 161° |
| 2026-05-06 12:14 | 26.35165 | 86.12445 | 32418 ft | 459 kts | 161° |
| 2026-05-06 12:14 | 26.32310 | 86.14028 | 32651 ft | 458 kts | 161° |
| 2026-05-06 12:14 | 26.29462 | 86.15606 | 32770 ft | 459 kts | 161° |
| 2026-05-06 12:14 | 26.26588 | 86.17195 | 32773 ft | 460 kts | 161° |
| 2026-05-06 12:15 | 26.20881 | 86.20354 | 32738 ft | 455 kts | 161° |
| 2026-05-06 12:15 | 26.15244 | 86.23471 | 32750 ft | 450 kts | 161° |
| 2026-05-06 12:16 | 26.09641 | 86.26562 | 32765 ft | 448 kts | 161° |
| 2026-05-06 12:16 | 26.04054 | 86.29639 | 32755 ft | 448 kts | 161° |
| 2026-05-06 12:17 | 25.98462 | 86.32718 | 32755 ft | 450 kts | 161° |
| 2026-05-06 12:17 | 25.92837 | 86.35812 | 32755 ft | 452 kts | 161° |
| 2026-05-06 12:18 | 25.87190 | 86.38917 | 32748 ft | 454 kts | 162° |
| 2026-05-06 12:18 | 25.81511 | 86.42050 | 32757 ft | 457 kts | 161° |
| 2026-05-06 12:19 | 25.75845 | 86.45308 | 32762 ft | 460 kts | 160° |
| 2026-05-06 12:19 | 25.70203 | 86.48571 | 32759 ft | 461 kts | 160° |
| 2026-05-06 12:20 | 25.64496 | 86.51850 | 32763 ft | 462 kts | 160° |
| 2026-05-06 12:20 | 25.58788 | 86.55119 | 32739 ft | 462 kts | 161° |
| 2026-05-06 12:21 | 25.53086 | 86.58383 | 32758 ft | 460 kts | 161° |
| 2026-05-06 12:21 | 25.47406 | 86.61632 | 32766 ft | 459 kts | 161° |
| 2026-05-06 12:22 | 25.41747 | 86.64866 | 32768 ft | 458 kts | 161° |
| 2026-05-06 12:22 | 25.36093 | 86.68095 | 32770 ft | 456 kts | 161° |
| 2026-05-06 12:23 | 25.30487 | 86.71293 | 32778 ft | 455 kts | 161° |
| 2026-05-06 12:23 | 25.24859 | 86.74500 | 32778 ft | 455 kts | 161° |
| 2026-05-06 12:24 | 25.19309 | 86.77670 | 32782 ft | 455 kts | 161° |
| 2026-05-06 12:24 | 25.13716 | 86.80920 | 32783 ft | 455 kts | 160° |
| 2026-05-06 12:25 | 25.08114 | 86.84182 | 32783 ft | 454 kts | 160° |
| 2026-05-06 12:25 | 25.02517 | 86.87432 | 32784 ft | 455 kts | 160° |
| 2026-05-06 12:26 | 24.96909 | 86.90681 | 32769 ft | 455 kts | 160° |
| 2026-05-06 12:26 | 24.91298 | 86.93927 | 32782 ft | 456 kts | 160° |
| 2026-05-06 12:27 | 24.85678 | 86.97176 | 32793 ft | 456 kts | 160° |
| 2026-05-06 12:27 | 24.81005 | 86.99875 | 32797 ft | 457 kts | 160° |
| 2026-05-06 12:28 | 24.75373 | 87.03125 | 32793 ft | 457 kts | 160° |
| 2026-05-06 12:28 | 24.69731 | 87.06378 | 32794 ft | 458 kts | 160° |
| 2026-05-06 12:29 | 24.64090 | 87.09627 | 32782 ft | 458 kts | 160° |
| 2026-05-06 12:29 | 24.58453 | 87.12871 | 32804 ft | 458 kts | 160° |
| 2026-05-06 12:30 | 24.52804 | 87.16105 | 32807 ft | 458 kts | 161° |
| 2026-05-06 12:30 | 24.47134 | 87.19274 | 32791 ft | 457 kts | 161° |
| 2026-05-06 12:31 | 24.41467 | 87.22429 | 32796 ft | 457 kts | 161° |
| 2026-05-06 12:31 | 24.35799 | 87.25593 | 32789 ft | 459 kts | 161° |
| 2026-05-06 12:32 | 24.30061 | 87.28795 | 33006 ft | 464 kts | 160° |
| 2026-05-06 12:32 | 24.27193 | 87.30398 | 33321 ft | 462 kts | 160° |
| 2026-05-06 12:32 | 24.24341 | 87.31991 | 33619 ft | 460 kts | 161° |
| 2026-05-06 12:33 | 24.21471 | 87.33510 | 33774 ft | 454 kts | 166° |
| 2026-05-06 12:33 | 24.18471 | 87.34471 | 33794 ft | 446 kts | 177° |
| 2026-05-06 12:33 | 24.12387 | 87.34680 | 33792 ft | 433 kts | 193° |
| 2026-05-06 12:34 | 24.06414 | 87.33873 | 33797 ft | 432 kts | 193° |
| 2026-05-06 12:34 | 24.00438 | 87.33087 | 33783 ft | 433 kts | 193° |
| 2026-05-06 12:35 | 23.94442 | 87.32338 | 33787 ft | 434 kts | 193° |
| 2026-05-06 12:35 | 23.88447 | 87.31601 | 33793 ft | 434 kts | 193° |
| 2026-05-06 12:36 | 23.82437 | 87.30862 | 33797 ft | 435 kts | 193° |
| 2026-05-06 12:36 | 23.76421 | 87.30122 | 33801 ft | 435 kts | 193° |
| 2026-05-06 12:37 | 23.70493 | 87.29049 | 33780 ft | 424 kts | 207° |
| 2026-05-06 12:37 | 23.65611 | 87.25824 | 33803 ft | 411 kts | 226° |
| 2026-05-06 12:38 | 23.61462 | 87.21585 | 33795 ft | 417 kts | 213° |
| 2026-05-06 12:38 | 23.56295 | 87.18701 | 33797 ft | 420 kts | 212° |
| 2026-05-06 12:39 | 23.51149 | 87.15665 | 33789 ft | 421 kts | 214° |
| 2026-05-06 12:39 | 23.46035 | 87.12536 | 33789 ft | 422 kts | 214° |
| 2026-05-06 12:40 | 23.40913 | 87.09374 | 33799 ft | 423 kts | 214° |
| 2026-05-06 12:40 | 23.35788 | 87.06210 | 33790 ft | 424 kts | 214° |
| 2026-05-06 12:41 | 23.30688 | 87.03067 | 33796 ft | 424 kts | 214° |
| 2026-05-06 12:41 | 23.25547 | 86.99904 | 33796 ft | 424 kts | 214° |
| 2026-05-06 12:42 | 23.20414 | 86.96749 | 33799 ft | 424 kts | 214° |
| 2026-05-06 12:42 | 23.15273 | 86.93592 | 33805 ft | 424 kts | 214° |
| 2026-05-06 12:43 | 23.10142 | 86.90443 | 33804 ft | 423 kts | 214° |
| 2026-05-06 12:43 | 23.05014 | 86.87300 | 33788 ft | 423 kts | 214° |
| 2026-05-06 12:44 | 22.99894 | 86.84164 | 33805 ft | 422 kts | 214° |
| 2026-05-06 12:44 | 22.94772 | 86.81029 | 33803 ft | 423 kts | 214° |
| 2026-05-06 12:45 | 22.89644 | 86.77892 | 33807 ft | 423 kts | 214° |
| 2026-05-06 12:46 | 22.81946 | 86.73190 | 33811 ft | 424 kts | 214° |
| 2026-05-06 12:46 | 22.76842 | 86.70076 | 33812 ft | 424 kts | 214° |
| 2026-05-06 12:47 | 22.71697 | 86.66939 | 33803 ft | 424 kts | 214° |
| 2026-05-06 12:47 | 22.66551 | 86.63805 | 33820 ft | 425 kts | 214° |
| 2026-05-06 12:48 | 22.61390 | 86.60664 | 33825 ft | 426 kts | 214° |
| 2026-05-06 12:48 | 22.56219 | 86.57519 | 33824 ft | 427 kts | 214° |
| 2026-05-06 12:49 | 22.51041 | 86.54372 | 33816 ft | 428 kts | 214° |
| 2026-05-06 12:49 | 22.45852 | 86.51218 | 33823 ft | 428 kts | 214° |
| 2026-05-06 12:50 | 22.40683 | 86.48029 | 33812 ft | 427 kts | 214° |
| 2026-05-06 12:50 | 22.35523 | 86.44833 | 33826 ft | 428 kts | 214° |
| 2026-05-06 12:51 | 22.30353 | 86.41638 | 33840 ft | 429 kts | 214° |
| 2026-05-06 12:51 | 22.25166 | 86.38438 | 33830 ft | 430 kts | 214° |
| 2026-05-06 12:52 | 22.19970 | 86.35237 | 33836 ft | 430 kts | 214° |
| 2026-05-06 12:52 | 22.14769 | 86.32035 | 33854 ft | 431 kts | 214° |
| 2026-05-06 12:53 | 22.09561 | 86.28833 | 33848 ft | 431 kts | 214° |
| 2026-05-06 12:53 | 22.04392 | 86.25656 | 33856 ft | 430 kts | 214° |
| 2026-05-06 12:54 | 21.99191 | 86.22464 | 33857 ft | 430 kts | 214° |
| 2026-05-06 12:54 | 21.93989 | 86.19272 | 33860 ft | 430 kts | 214° |
| 2026-05-06 12:55 | 21.88790 | 86.16085 | 33860 ft | 430 kts | 214° |
| 2026-05-06 12:55 | 21.83596 | 86.12904 | 33865 ft | 430 kts | 214° |
| 2026-05-06 12:56 | 21.78397 | 86.09722 | 33849 ft | 430 kts | 214° |
| 2026-05-06 12:56 | 21.73202 | 86.06546 | 33841 ft | 429 kts | 214° |
| 2026-05-06 12:57 | 21.68015 | 86.03377 | 33853 ft | 429 kts | 214° |
| 2026-05-06 12:57 | 21.62825 | 86.00208 | 33853 ft | 429 kts | 214° |
| 2026-05-06 12:58 | 21.57631 | 85.97040 | 33842 ft | 429 kts | 214° |
| 2026-05-06 12:58 | 21.52490 | 85.93799 | 33844 ft | 428 kts | 217° |
| 2026-05-06 12:59 | 21.47484 | 85.90345 | 33829 ft | 428 kts | 217° |
| 2026-05-06 12:59 | 21.42488 | 85.86879 | 33825 ft | 428 kts | 217° |
| 2026-05-06 13:00 | 21.37468 | 85.83434 | 33819 ft | 428 kts | 217° |
| 2026-05-06 13:00 | 21.32432 | 85.80001 | 33825 ft | 429 kts | 217° |
| 2026-05-06 13:01 | 21.27382 | 85.76565 | 33817 ft | 431 kts | 217° |
| 2026-05-06 13:01 | 21.22314 | 85.73120 | 33809 ft | 432 kts | 217° |
| 2026-05-06 13:02 | 21.17251 | 85.69681 | 33811 ft | 432 kts | 217° |
| 2026-05-06 13:02 | 21.12170 | 85.66231 | 33813 ft | 433 kts | 217° |
| 2026-05-06 13:03 | 21.07075 | 85.62774 | 33799 ft | 434 kts | 216° |
| 2026-05-06 13:03 | 21.01977 | 85.59320 | 33809 ft | 434 kts | 216° |
| 2026-05-06 13:04 | 20.96876 | 85.55865 | 33792 ft | 434 kts | 216° |
| 2026-05-06 13:04 | 20.91774 | 85.52412 | 33784 ft | 434 kts | 216° |
| 2026-05-06 13:05 | 20.86717 | 85.48992 | 33784 ft | 433 kts | 216° |
| 2026-05-06 13:05 | 20.81639 | 85.45543 | 33787 ft | 432 kts | 217° |
| 2026-05-06 13:06 | 20.76584 | 85.42083 | 33799 ft | 431 kts | 217° |
| 2026-05-06 13:06 | 20.71530 | 85.38622 | 33793 ft | 431 kts | 216° |
| 2026-05-06 13:07 | 20.66484 | 85.35174 | 33784 ft | 431 kts | 216° |
| 2026-05-06 13:07 | 20.61434 | 85.31727 | 33784 ft | 431 kts | 216° |
| 2026-05-06 13:08 | 20.56386 | 85.28285 | 33786 ft | 431 kts | 216° |
| 2026-05-06 13:08 | 20.51331 | 85.24840 | 33791 ft | 431 kts | 216° |
| 2026-05-06 13:09 | 20.46263 | 85.21389 | 33789 ft | 432 kts | 216° |
| 2026-05-06 13:09 | 20.41190 | 85.17939 | 33783 ft | 433 kts | 216° |
| 2026-05-06 13:10 | 20.36204 | 85.14550 | 33784 ft | 433 kts | 216° |
| 2026-05-06 13:10 | 20.31109 | 85.11090 | 33791 ft | 433 kts | 216° |
| 2026-05-06 13:11 | 20.26075 | 85.07673 | 33801 ft | 433 kts | 216° |
| 2026-05-06 13:11 | 20.21003 | 85.04233 | 33806 ft | 433 kts | 216° |
| 2026-05-06 13:12 | 20.15912 | 85.00784 | 33796 ft | 434 kts | 216° |
| 2026-05-06 13:12 | 20.10838 | 84.97348 | 33801 ft | 434 kts | 216° |
| 2026-05-06 13:13 | 20.05741 | 84.93899 | 33787 ft | 434 kts | 216° |
| 2026-05-06 13:13 | 20.00667 | 84.90469 | 33797 ft | 433 kts | 216° |
| 2026-05-06 13:14 | 19.95595 | 84.87043 | 33800 ft | 432 kts | 216° |
| 2026-05-06 13:14 | 19.90529 | 84.83624 | 33804 ft | 431 kts | 216° |
| 2026-05-06 13:15 | 19.85503 | 84.80233 | 33799 ft | 431 kts | 216° |
| 2026-05-06 13:15 | 19.80444 | 84.76823 | 33801 ft | 430 kts | 216° |
| 2026-05-06 13:16 | 19.75378 | 84.73411 | 33802 ft | 429 kts | 216° |
| 2026-05-06 13:16 | 19.70379 | 84.70045 | 33783 ft | 429 kts | 216° |
| 2026-05-06 13:17 | 19.65357 | 84.66659 | 33799 ft | 429 kts | 216° |
| 2026-05-06 13:17 | 19.60398 | 84.63135 | 33803 ft | 430 kts | 217° |
| 2026-05-06 13:18 | 19.56242 | 84.60127 | 33806 ft | 431 kts | 217° |
| 2026-05-06 13:18 | 19.51284 | 84.56552 | 33810 ft | 433 kts | 217° |
| 2026-05-06 13:19 | 19.46280 | 84.52963 | 33808 ft | 435 kts | 217° |
| 2026-05-06 13:19 | 19.41255 | 84.49370 | 33828 ft | 437 kts | 217° |
| 2026-05-06 13:20 | 19.36213 | 84.45768 | 33811 ft | 437 kts | 217° |
| 2026-05-06 13:20 | 19.31166 | 84.42166 | 33823 ft | 438 kts | 217° |
| 2026-05-06 13:21 | 19.26120 | 84.38566 | 33829 ft | 437 kts | 217° |
| 2026-05-06 13:21 | 19.21076 | 84.34971 | 33844 ft | 437 kts | 217° |
| 2026-05-06 13:22 | 19.16038 | 84.31381 | 33827 ft | 436 kts | 217° |
| 2026-05-06 13:22 | 19.11007 | 84.27801 | 33829 ft | 435 kts | 217° |
| 2026-05-06 13:23 | 19.05985 | 84.24228 | 33843 ft | 435 kts | 217° |
| 2026-05-06 13:23 | 19.00999 | 84.20685 | 33829 ft | 435 kts | 216° |
| 2026-05-06 13:24 | 18.95980 | 84.17119 | 33846 ft | 435 kts | 216° |
| 2026-05-06 13:24 | 18.90948 | 84.13547 | 33832 ft | 436 kts | 216° |
| 2026-05-06 13:25 | 18.85905 | 84.09971 | 33840 ft | 437 kts | 217° |
| 2026-05-06 13:25 | 18.80857 | 84.06394 | 33840 ft | 437 kts | 216° |
| 2026-05-06 13:26 | 18.75798 | 84.02811 | 33831 ft | 439 kts | 216° |
| 2026-05-06 13:26 | 18.70726 | 83.99221 | 33819 ft | 439 kts | 216° |
| 2026-05-06 13:27 | 18.65644 | 83.95628 | 33833 ft | 440 kts | 216° |
| 2026-05-06 13:27 | 18.60553 | 83.92029 | 33822 ft | 441 kts | 216° |
| 2026-05-06 13:28 | 18.55461 | 83.88433 | 33819 ft | 440 kts | 217° |
| 2026-05-06 13:28 | 18.50380 | 83.84840 | 33820 ft | 440 kts | 217° |
| 2026-05-06 13:29 | 18.45328 | 83.81221 | 33822 ft | 439 kts | 217° |
| 2026-05-06 13:29 | 18.40291 | 83.77604 | 33820 ft | 438 kts | 217° |
| 2026-05-06 13:30 | 18.35262 | 83.73999 | 33819 ft | 437 kts | 217° |
| 2026-05-06 13:30 | 18.30243 | 83.70407 | 33821 ft | 436 kts | 216° |
| 2026-05-06 13:31 | 18.25233 | 83.66826 | 33822 ft | 435 kts | 216° |
| 2026-05-06 13:31 | 18.20223 | 83.63246 | 33820 ft | 435 kts | 216° |
| 2026-05-06 13:32 | 18.15248 | 83.59695 | 33809 ft | 435 kts | 216° |
| 2026-05-06 13:32 | 18.10240 | 83.56122 | 33817 ft | 435 kts | 216° |
| 2026-05-06 13:33 | 18.05228 | 83.52549 | 33819 ft | 436 kts | 216° |
| 2026-05-06 13:33 | 18.00208 | 83.48972 | 33810 ft | 436 kts | 216° |
| 2026-05-06 13:34 | 17.95180 | 83.45392 | 33812 ft | 437 kts | 216° |
| 2026-05-06 13:34 | 17.90142 | 83.41808 | 33815 ft | 438 kts | 216° |
| 2026-05-06 13:35 | 17.85097 | 83.38221 | 33823 ft | 438 kts | 216° |
| 2026-05-06 13:35 | 17.80047 | 83.34632 | 33825 ft | 439 kts | 216° |
| 2026-05-06 13:36 | 17.74979 | 83.31034 | 33833 ft | 440 kts | 216° |
| 2026-05-06 13:36 | 17.69915 | 83.27440 | 33833 ft | 440 kts | 216° |
| 2026-05-06 13:37 | 17.64828 | 83.23859 | 33829 ft | 440 kts | 215° |
| 2026-05-06 13:37 | 17.59685 | 83.20378 | 33822 ft | 440 kts | 214° |
| 2026-05-06 13:38 | 17.54532 | 83.16918 | 33803 ft | 439 kts | 214° |
| 2026-05-06 13:38 | 17.49395 | 83.13456 | 33794 ft | 439 kts | 214° |
| 2026-05-06 13:39 | 17.44268 | 83.09993 | 33803 ft | 438 kts | 214° |
| 2026-05-06 13:39 | 17.39148 | 83.06535 | 33802 ft | 438 kts | 214° |
| 2026-05-06 13:40 | 17.34032 | 83.03081 | 33805 ft | 437 kts | 214° |
| 2026-05-06 13:40 | 17.28953 | 82.99654 | 33804 ft | 437 kts | 214° |
| 2026-05-06 13:41 | 17.23840 | 82.96207 | 33804 ft | 437 kts | 214° |
| 2026-05-06 13:41 | 17.18729 | 82.92765 | 33803 ft | 437 kts | 214° |
| 2026-05-06 13:42 | 17.13621 | 82.89326 | 33805 ft | 437 kts | 214° |
| 2026-05-06 13:42 | 17.08514 | 82.85890 | 33805 ft | 437 kts | 214° |
| 2026-05-06 13:43 | 17.03407 | 82.82456 | 33800 ft | 436 kts | 214° |
| 2026-05-06 13:43 | 16.98300 | 82.79025 | 33803 ft | 436 kts | 214° |
| 2026-05-06 13:44 | 16.93191 | 82.75594 | 33799 ft | 437 kts | 214° |
| 2026-05-06 13:44 | 16.88078 | 82.72163 | 33805 ft | 437 kts | 214° |
| 2026-05-06 13:45 | 16.82963 | 82.68732 | 33800 ft | 437 kts | 214° |
| 2026-05-06 13:45 | 16.75272 | 82.63581 | 33806 ft | 438 kts | 214° |
| 2026-05-06 13:46 | 16.70129 | 82.60159 | 33806 ft | 439 kts | 213° |
| 2026-05-06 13:46 | 16.64980 | 82.56738 | 33806 ft | 439 kts | 213° |
| 2026-05-06 13:47 | 16.59824 | 82.53311 | 33803 ft | 439 kts | 213° |
| 2026-05-06 13:47 | 16.54668 | 82.49886 | 33788 ft | 440 kts | 213° |
| 2026-05-06 13:48 | 16.49507 | 82.46459 | 33804 ft | 440 kts | 213° |
| 2026-05-06 13:48 | 16.44340 | 82.43030 | 33809 ft | 441 kts | 213° |
| 2026-05-06 13:49 | 16.39197 | 82.39619 | 33810 ft | 442 kts | 213° |
| 2026-05-06 13:49 | 16.34012 | 82.36183 | 33809 ft | 442 kts | 213° |
| 2026-05-06 13:50 | 16.28818 | 82.32743 | 33809 ft | 443 kts | 213° |
| 2026-05-06 13:50 | 16.23618 | 82.29301 | 33808 ft | 443 kts | 213° |
| 2026-05-06 13:51 | 16.18414 | 82.25858 | 33799 ft | 444 kts | 213° |
| 2026-05-06 13:51 | 16.13204 | 82.22414 | 33813 ft | 444 kts | 213° |
| 2026-05-06 13:52 | 16.07989 | 82.18969 | 33813 ft | 444 kts | 213° |
| 2026-05-06 13:52 | 16.02767 | 82.15521 | 33815 ft | 445 kts | 213° |
| 2026-05-06 13:53 | 15.97539 | 82.12071 | 33811 ft | 445 kts | 213° |
| 2026-05-06 13:53 | 15.92304 | 82.08618 | 33808 ft | 446 kts | 213° |
| 2026-05-06 13:54 | 15.87067 | 82.05166 | 33808 ft | 446 kts | 213° |
| 2026-05-06 13:54 | 15.81842 | 82.01689 | 33803 ft | 446 kts | 214° |
| 2026-05-06 13:55 | 15.76650 | 81.98166 | 33812 ft | 446 kts | 214° |
| 2026-05-06 13:55 | 15.71455 | 81.94642 | 33808 ft | 446 kts | 214° |
| 2026-05-06 13:56 | 15.66254 | 81.91126 | 33808 ft | 446 kts | 214° |
| 2026-05-06 13:56 | 15.61047 | 81.87610 | 33811 ft | 446 kts | 214° |
| 2026-05-06 13:57 | 15.55844 | 81.84099 | 33808 ft | 446 kts | 214° |
| 2026-05-06 13:57 | 15.50608 | 81.80643 | 33808 ft | 446 kts | 213° |
| 2026-05-06 13:58 | 15.45348 | 81.77227 | 33813 ft | 446 kts | 213° |
| 2026-05-06 13:58 | 15.40098 | 81.73817 | 33810 ft | 446 kts | 213° |
| 2026-05-06 13:59 | 15.34851 | 81.70399 | 33811 ft | 445 kts | 213° |